createdAt,value
2018-04-20T00:01:09.931Z,99.90
2018-04-20T00:03:41.137Z,99.90
2018-04-20T00:06:12.242Z,99.90
2018-04-20T00:08:44.137Z,99.90
2018-04-20T00:11:16.157Z,99.90
2018-04-20T00:13:47.075Z,99.90
2018-04-20T00:16:18.357Z,99.90
2018-04-20T00:18:50.774Z,99.90
2018-04-20T00:21:21.812Z,99.90
2018-04-20T00:23:53.413Z,99.90
2018-04-20T00:26:24.658Z,99.90
2018-04-20T00:28:55.837Z,99.90
2018-04-20T00:31:27.484Z,99.90
2018-04-20T00:33:59.270Z,99.90
2018-04-20T00:36:30.258Z,99.90
2018-04-20T00:39:01.158Z,99.90
2018-04-20T00:41:32.202Z,99.90
2018-04-20T00:44:03.381Z,99.90
2018-04-20T00:46:34.352Z,99.90
2018-04-20T00:49:05.937Z,99.90
2018-04-20T00:51:36.762Z,99.90
2018-04-20T00:54:18.294Z,99.90
2018-04-20T00:56:49.435Z,99.90
2018-04-20T00:59:20.467Z,99.90
2018-04-20T01:01:51.483Z,99.90
2018-04-20T01:04:22.429Z,99.90
2018-04-20T01:06:53.720Z,99.90
2018-04-20T01:09:24.658Z,99.90
2018-04-20T01:11:55.564Z,99.90
2018-04-20T01:14:26.701Z,99.90
2018-04-20T01:16:57.577Z,99.90
2018-04-20T01:19:29.186Z,99.90
2018-04-20T01:22:00.240Z,99.90
2018-04-20T01:24:31.065Z,99.90
2018-04-20T01:27:02.067Z,99.90
2018-04-20T01:29:33.164Z,99.90
2018-04-20T01:32:04.194Z,99.90
2018-04-20T01:34:35.021Z,99.90
2018-04-20T01:37:06.333Z,99.90
2018-04-20T01:39:37.157Z,99.90
2018-04-20T01:42:08.191Z,99.90
2018-04-20T01:44:40.070Z,99.90
2018-04-20T01:47:11.806Z,99.90
2018-04-20T01:49:42.697Z,99.90
2018-04-20T01:52:13.957Z,99.90
2018-04-20T01:54:44.807Z,99.90
2018-04-20T01:57:15.768Z,99.90
2018-04-20T01:59:46.931Z,99.90
2018-04-20T02:02:17.896Z,99.90
2018-04-20T02:04:48.789Z,99.90
2018-04-20T02:07:20.078Z,99.90
2018-04-20T02:09:51.001Z,99.90
2018-04-20T02:12:22.003Z,99.90
2018-04-20T02:14:53.921Z,99.90
2018-04-20T02:17:25.069Z,99.90
2018-04-20T02:19:55.944Z,99.90
2018-04-20T02:22:28.969Z,99.90
2018-04-20T02:24:59.829Z,99.90
2018-04-20T02:27:30.892Z,99.90
2018-04-20T02:30:02.487Z,99.90
2018-04-20T02:32:33.643Z,99.90
2018-04-20T02:35:04.506Z,99.90
2018-04-20T02:37:35.506Z,99.90
2018-04-20T02:40:06.394Z,99.90
2018-04-20T02:42:37.289Z,99.90
2018-04-20T02:45:08.160Z,99.90
2018-04-20T02:47:39.506Z,99.90
2018-04-20T02:50:11.174Z,99.90
2018-04-20T02:52:42.936Z,99.90
2018-04-20T02:55:13.921Z,99.90
2018-04-20T02:57:45.088Z,99.90
2018-04-20T03:00:16.484Z,99.90
2018-04-20T03:02:48.521Z,99.90
2018-04-20T03:05:19.362Z,99.90
2018-04-20T03:07:50.797Z,99.90
2018-04-20T03:10:21.659Z,99.90
2018-04-20T03:12:53.754Z,99.90
2018-04-20T03:15:24.593Z,99.90
2018-04-20T03:17:55.598Z,99.90
2018-04-20T03:20:27.858Z,99.90
2018-04-20T03:22:58.831Z,99.90
2018-04-20T03:25:29.806Z,99.90
2018-04-20T03:28:01.162Z,99.90
2018-04-20T03:30:31.972Z,99.90
2018-04-20T03:33:02.988Z,99.90
2018-04-20T03:35:34.127Z,99.90
2018-04-20T03:38:05.175Z,99.90
2018-04-20T03:40:36.046Z,99.90
2018-04-20T03:43:07.493Z,99.90
2018-04-20T03:45:38.375Z,99.90
2018-04-20T03:48:10.059Z,99.90
2018-04-20T03:50:41.331Z,99.90
2018-04-20T03:53:12.272Z,99.90
2018-04-20T03:55:43.180Z,99.90
2018-04-20T03:58:14.205Z,99.90
2018-04-20T04:00:46.233Z,99.90
2018-04-20T04:03:17.373Z,99.90
2018-04-20T04:05:48.208Z,99.90
2018-04-20T04:08:19.805Z,99.90
2018-04-20T04:10:51.450Z,99.90
2018-04-20T04:13:23.082Z,99.90
2018-04-20T04:15:54.722Z,99.90
2018-04-20T04:20:37.184Z,99.90
2018-04-20T04:23:18.546Z,99.90
2018-04-20T04:26:00.651Z,99.90
2018-04-20T04:28:32.238Z,99.90
2018-04-20T04:31:03.277Z,99.90
2018-04-20T04:33:35.329Z,99.90
2018-04-20T04:36:06.228Z,99.90
2018-04-20T04:38:37.084Z,99.90
2018-04-20T04:41:09.269Z,99.90
2018-04-20T04:43:41.398Z,99.90
2018-04-20T04:46:12.946Z,99.90
2018-04-20T04:48:44.548Z,99.90
2018-04-20T04:51:15.722Z,99.90
2018-04-20T04:53:46.624Z,99.90
2018-04-20T04:56:17.785Z,99.90
2018-04-20T04:58:48.603Z,99.90
2018-04-20T05:01:20.421Z,99.90
2018-04-20T05:03:52.281Z,99.90
2018-04-20T05:06:23.441Z,99.90
2018-04-20T05:08:54.321Z,99.90
2018-04-20T05:11:25.589Z,99.90
2018-04-20T05:13:57.793Z,99.90
2018-04-20T05:16:28.853Z,99.90
2018-04-20T05:18:59.877Z,99.90
2018-04-20T05:21:30.873Z,99.90
2018-04-20T05:24:02.782Z,99.90
2018-04-20T05:26:35.017Z,99.90
2018-04-20T05:29:07.561Z,99.90
2018-04-20T05:31:39.481Z,99.90
2018-04-20T05:34:10.317Z,99.90
2018-04-20T05:36:42.294Z,99.90
2018-04-20T05:39:13.199Z,99.90
2018-04-20T05:41:44.213Z,99.90
2018-04-20T05:44:15.738Z,99.90
2018-04-20T05:46:47.364Z,99.90
2018-04-20T05:49:18.433Z,99.90
2018-04-20T05:51:50.049Z,99.90
2018-04-20T05:54:22.313Z,99.90
2018-04-20T05:56:53.891Z,99.90
2018-04-20T05:59:26.020Z,99.90
2018-04-20T06:01:57.282Z,99.90
2018-04-20T06:04:28.816Z,99.90
2018-04-20T06:07:01.757Z,99.90
2018-04-20T06:09:45.358Z,99.90
2018-04-20T06:12:18.376Z,99.90
2018-04-20T06:14:49.902Z,99.90
2018-04-20T06:17:22.182Z,99.90
2018-04-20T06:19:54.532Z,99.90
2018-04-20T06:22:26.630Z,99.90
2018-04-20T06:25:03.449Z,99.90
2018-04-20T06:27:38.209Z,99.90
2018-04-20T06:30:09.933Z,99.90
2018-04-20T06:32:44.395Z,99.90
2018-04-20T06:35:16.543Z,99.90
2018-04-20T06:37:49.666Z,99.90
2018-04-20T06:40:23.664Z,99.90
2018-04-20T06:42:55.677Z,99.90
2018-04-20T06:45:26.873Z,99.90
2018-04-20T06:47:58.582Z,99.90
2018-04-20T06:50:29.826Z,99.90
2018-04-20T06:53:01.032Z,99.90
2018-04-20T06:55:32.882Z,99.90
2018-04-20T06:58:05.918Z,99.90
2018-04-20T07:00:37.647Z,99.90
2018-04-20T07:03:09.237Z,99.90
2018-04-20T07:05:40.906Z,99.90
2018-04-20T07:08:12.396Z,99.90
2018-04-20T07:10:45.655Z,99.90
2018-04-20T07:13:19.348Z,99.90
2018-04-20T07:15:51.147Z,99.90
2018-04-20T07:18:22.214Z,99.90
2018-04-20T07:20:53.471Z,99.90
2018-04-20T07:23:25.082Z,99.90
2018-04-20T07:25:56.002Z,99.90
2018-04-20T07:28:27.697Z,99.90
2018-04-20T07:30:58.682Z,99.90
2018-04-20T07:33:31.071Z,99.90
2018-04-20T07:36:02.597Z,99.90
2018-04-20T07:38:34.806Z,99.90
2018-04-20T07:41:05.677Z,99.90
2018-04-20T07:43:37.421Z,99.90
2018-04-20T07:46:08.915Z,99.90
2018-04-20T07:48:39.943Z,99.90
2018-04-20T07:51:12.346Z,99.90
2018-04-20T07:53:43.470Z,99.90
2018-04-20T07:56:14.381Z,99.90
2018-04-20T07:58:45.364Z,99.90
2018-04-20T08:01:17.084Z,99.90
2018-04-20T08:03:47.997Z,99.90
2018-04-20T08:06:18.851Z,99.90
2018-04-20T08:08:54.052Z,99.90
2018-04-20T08:11:25.497Z,98.70
2018-04-20T08:13:57.534Z,99.90
2018-04-20T08:16:33.030Z,98.70
2018-04-20T08:19:05.498Z,98.70
2018-04-20T08:21:37.189Z,96.50
2018-04-20T08:24:08.413Z,96.40
2018-04-20T08:26:39.755Z,98.40
2018-04-20T08:29:11.523Z,97.60
2018-04-20T08:31:42.365Z,96.60
2018-04-20T08:34:13.289Z,97.50
2018-04-20T08:36:45.434Z,94.30
2018-04-20T08:39:25.477Z,94.40
2018-04-20T08:41:56.681Z,94.50
2018-04-20T08:44:28.284Z,93.50
2018-04-20T08:46:59.864Z,92.20
2018-04-20T08:49:30.717Z,90.60
2018-04-20T08:52:01.673Z,90.90
2018-04-20T08:54:32.845Z,87.80
2018-04-20T08:57:04.323Z,87.90
2018-04-20T08:59:35.334Z,90.30
2018-04-20T09:02:06.921Z,83.10
2018-04-20T09:04:38.019Z,83.00
2018-04-20T09:07:08.933Z,82.90
2018-04-20T09:09:39.922Z,85.00
2018-04-20T09:12:11.538Z,80.00
2018-04-20T09:14:44.626Z,79.90
2018-04-20T09:17:17.754Z,79.10
2018-04-20T09:19:49.004Z,82.60
2018-04-20T09:22:19.870Z,78.10
2018-04-20T09:24:56.437Z,78.10
2018-04-20T09:27:28.577Z,72.70
2018-04-20T09:30:00.165Z,73.50
2018-04-20T09:32:31.112Z,73.50
2018-04-20T09:35:02.005Z,71.00
2018-04-20T09:37:33.829Z,69.40
2018-04-20T09:40:05.054Z,69.70
2018-04-20T09:42:35.922Z,70.20
2018-04-20T09:45:15.973Z,63.60
2018-04-20T09:47:46.875Z,63.80
2018-04-20T09:50:19.105Z,64.20
2018-04-20T09:52:50.002Z,64.10
2018-04-20T09:55:21.068Z,66.10
2018-04-20T09:57:52.367Z,63.70
2018-04-20T10:00:23.528Z,63.40
2018-04-20T10:02:54.537Z,63.20
2018-04-20T10:05:26.639Z,63.00
2018-04-20T10:07:57.749Z,61.40
2018-04-20T10:10:28.754Z,61.70
2018-04-20T10:13:00.765Z,61.40
2018-04-20T10:15:31.923Z,61.20
2018-04-20T10:18:02.768Z,61.00
2018-04-20T10:20:34.597Z,59.90
2018-04-20T10:23:05.726Z,58.20
2018-04-20T10:25:36.762Z,57.20
2018-04-20T10:28:07.735Z,56.50
2018-04-20T10:30:38.584Z,57.20
2018-04-20T10:33:09.456Z,55.90
2018-04-20T10:35:41.508Z,57.20
2018-04-20T10:38:12.396Z,57.10
2018-04-20T10:40:43.339Z,57.50
2018-04-20T10:43:14.173Z,57.10
2018-04-20T10:45:45.206Z,57.60
2018-04-20T10:48:16.326Z,57.10
2018-04-20T10:50:47.243Z,57.70
2018-04-20T10:53:18.861Z,56.80
2018-04-20T10:55:49.916Z,56.70
2018-04-20T10:58:20.761Z,57.20
2018-04-20T11:00:52.388Z,56.50
2018-04-20T11:03:23.278Z,56.80
2018-04-20T11:05:56.987Z,57.90
2018-04-20T11:08:27.907Z,57.30
2018-04-20T11:10:59.677Z,54.40
2018-04-20T11:13:30.542Z,54.40
2018-04-20T11:16:01.401Z,54.00
2018-04-20T11:18:33.317Z,51.50
2018-04-20T11:21:04.221Z,51.50
2018-04-20T11:23:35.101Z,51.20
2018-04-20T11:26:06.101Z,51.30
2018-04-20T11:28:38.708Z,50.80
2018-04-20T11:31:09.910Z,50.50
2018-04-20T11:33:40.745Z,49.40
2018-04-20T11:36:11.962Z,49.80
2018-04-20T11:38:42.790Z,49.20
2018-04-20T11:41:13.770Z,49.60
2018-04-20T11:43:47.594Z,49.50
2018-04-20T11:46:19.205Z,50.10
2018-04-20T11:48:52.385Z,50.80
2018-04-20T11:51:24.293Z,51.10
2018-04-20T11:53:56.494Z,51.00
2018-04-20T11:56:27.661Z,52.20
2018-04-20T11:58:58.538Z,52.20
2018-04-20T12:01:30.106Z,51.90
2018-04-20T12:04:01.746Z,53.60
2018-04-20T12:06:33.033Z,53.50
2018-04-20T12:09:05.016Z,54.30
2018-04-20T12:11:36.061Z,53.20
2018-04-20T12:14:06.879Z,53.10
2018-04-20T12:16:38.257Z,53.90
2018-04-20T12:19:09.754Z,52.30
2018-04-20T12:21:41.393Z,51.40
2018-04-20T12:24:12.354Z,51.40
2018-04-20T12:26:43.498Z,51.50
2018-04-20T12:29:15.085Z,52.00
2018-04-20T12:31:46.373Z,51.90
2018-04-20T12:34:17.293Z,53.40
2018-04-20T12:36:48.182Z,53.60
2018-04-20T12:39:21.914Z,52.50
2018-04-20T12:41:53.053Z,52.70
2018-04-20T12:44:24.004Z,52.00
2018-04-20T12:46:55.485Z,52.30
2018-04-20T12:49:26.342Z,51.00
2018-04-20T12:51:58.142Z,48.50
2018-04-20T12:54:29.009Z,48.50
2018-04-20T12:57:00.203Z,47.90
2018-04-20T12:59:31.035Z,49.60
2018-04-20T13:02:01.888Z,49.40
2018-04-20T13:04:33.008Z,48.60
2018-04-20T13:07:04.790Z,47.40
2018-04-20T13:09:35.661Z,47.30
2018-04-20T13:12:06.696Z,47.10
2018-04-20T13:14:37.521Z,46.30
2018-04-20T13:17:08.744Z,45.60
2018-04-20T13:19:39.632Z,43.50
2018-04-20T13:22:10.703Z,47.00
2018-04-20T13:24:41.629Z,47.30
2018-04-20T13:27:12.895Z,47.20
2018-04-20T13:29:44.214Z,48.30
2018-04-20T13:32:16.027Z,45.40
2018-04-20T13:34:46.882Z,45.40
2018-04-20T13:37:18.555Z,45.40
2018-04-20T13:39:49.365Z,45.20
2018-04-20T13:42:20.325Z,44.60
2018-04-20T13:44:51.209Z,43.50
2018-04-20T13:47:39.581Z,44.60
2018-04-20T13:50:12.049Z,44.00
2018-04-20T13:52:44.505Z,41.20
2018-04-20T13:55:16.236Z,40.40
2018-04-20T13:57:47.472Z,40.30
2018-04-20T14:00:18.294Z,41.80
2018-04-20T14:02:49.222Z,41.30
2018-04-20T14:05:20.081Z,40.90
2018-04-20T14:07:52.125Z,42.20
2018-04-20T14:10:23.622Z,40.50
2018-04-20T14:12:54.625Z,41.60
2018-04-20T14:15:25.476Z,41.90
2018-04-20T14:17:56.344Z,42.30
2018-04-20T14:20:28.245Z,40.60
2018-04-20T14:22:59.241Z,40.60
2018-04-20T14:25:30.886Z,41.20
2018-04-20T14:28:01.888Z,41.20
2018-04-20T14:30:32.703Z,40.70
2018-04-20T14:33:03.985Z,43.50
2018-04-20T14:35:34.817Z,45.10
2018-04-20T14:38:05.757Z,45.60
2018-04-20T14:40:36.890Z,44.50
2018-04-20T14:43:07.937Z,44.20
2018-04-20T14:45:38.802Z,42.70
2018-04-20T14:48:09.982Z,40.50
2018-04-20T14:50:40.813Z,41.50
2018-04-20T14:53:11.694Z,42.40
2018-04-20T14:55:43.600Z,42.80
2018-04-20T14:58:15.518Z,42.40
2018-04-20T15:00:46.510Z,42.30
2018-04-20T15:03:17.602Z,42.80
2018-04-20T15:05:48.856Z,43.20
2018-04-20T15:08:20.293Z,43.70
2018-04-20T15:10:51.136Z,44.10
2018-04-20T15:13:22.196Z,43.20
2018-04-20T15:15:53.029Z,42.90
2018-04-20T15:18:23.926Z,43.20
2018-04-20T15:20:55.304Z,43.20
2018-04-20T15:23:26.290Z,43.70
2018-04-20T15:25:57.140Z,43.60
2018-04-20T15:28:28.447Z,42.80
2018-04-20T15:30:59.297Z,44.80
2018-04-20T15:33:31.121Z,47.00
2018-04-20T15:36:01.966Z,46.90
2018-04-20T15:38:33.198Z,47.60
2018-04-20T15:41:04.109Z,48.60
2018-04-20T15:43:35.551Z,47.80
2018-04-20T15:46:06.385Z,48.70
2018-04-20T15:48:37.361Z,47.90
2018-04-20T15:51:08.209Z,48.50
2018-04-20T15:53:39.053Z,48.70
2018-04-20T15:56:09.876Z,47.60
2018-04-20T15:58:41.106Z,48.10
2018-04-20T16:01:11.951Z,47.00
2018-04-20T16:03:42.974Z,48.40
2018-04-20T16:06:13.805Z,50.00
2018-04-20T16:08:44.901Z,50.40
2018-04-20T16:11:15.744Z,50.20
2018-04-20T16:13:47.080Z,52.10
2018-04-20T16:16:17.968Z,52.60
2018-04-20T16:18:48.846Z,53.00
2018-04-20T16:21:19.752Z,53.20
2018-04-20T16:23:50.772Z,53.60
2018-04-20T16:26:21.613Z,53.30
2018-04-20T16:28:52.934Z,52.90
2018-04-20T16:31:24.602Z,53.20
2018-04-20T16:33:55.557Z,53.10
2018-04-20T16:36:27.757Z,54.10
2018-04-20T16:39:00.409Z,54.80
2018-04-20T16:41:31.564Z,54.80
2018-04-20T16:44:02.749Z,55.80
2018-04-20T16:46:33.734Z,54.40
2018-04-20T16:49:04.750Z,53.50
2018-04-20T16:51:37.637Z,54.60
2018-04-20T16:54:09.545Z,53.70
2018-04-20T16:56:42.137Z,54.70
2018-04-20T16:59:13.625Z,54.60
2018-04-20T17:01:45.276Z,54.10
2018-04-20T17:04:17.125Z,54.30
2018-04-20T17:06:48.750Z,53.50
2018-04-20T17:09:19.882Z,53.50
2018-04-20T17:11:51.026Z,52.00
2018-04-20T17:14:21.975Z,52.30
2018-04-20T17:16:52.797Z,52.30
2018-04-20T17:19:24.757Z,55.70
2018-04-20T17:21:55.712Z,55.70
2018-04-20T17:24:26.553Z,55.10
2018-04-20T17:26:57.674Z,55.40
2018-04-20T17:29:28.694Z,55.50
2018-04-20T17:31:59.576Z,56.30
2018-04-20T17:34:30.872Z,56.40
2018-04-20T17:37:01.729Z,58.10
2018-04-20T17:39:32.774Z,59.20
2018-04-20T17:42:03.780Z,59.30
2018-04-20T17:44:35.586Z,62.50
2018-04-20T17:47:06.717Z,62.50
2018-04-20T17:49:37.572Z,65.30
2018-04-20T17:52:08.413Z,67.00
2018-04-20T17:54:39.808Z,69.30
2018-04-20T17:57:10.651Z,69.70
2018-04-20T17:59:41.670Z,71.80
2018-04-20T18:02:12.564Z,72.50
2018-04-20T18:04:43.505Z,74.80
2018-04-20T18:07:15.157Z,77.30
2018-04-20T18:09:46.144Z,78.80
2018-04-20T18:12:17.437Z,78.80
2018-04-20T18:14:48.430Z,80.30
2018-04-20T18:17:20.193Z,84.80
2018-04-20T18:19:51.714Z,84.80
2018-04-20T18:22:22.680Z,90.10
2018-04-20T18:24:54.961Z,92.60
2018-04-20T18:27:28.311Z,97.50
2018-04-20T18:30:04.091Z,99.60
2018-04-20T18:32:36.926Z,99.60
2018-04-20T18:35:11.162Z,99.90
2018-04-20T18:37:43.279Z,99.90
2018-04-20T18:40:15.308Z,99.90
2018-04-20T18:42:52.210Z,99.90
2018-04-20T18:45:24.540Z,99.90
2018-04-20T18:47:55.545Z,99.90
2018-04-20T18:50:26.431Z,99.90
2018-04-20T18:52:57.322Z,99.90
2018-04-20T18:55:28.246Z,99.90
2018-04-20T18:57:59.377Z,99.90
2018-04-20T19:00:31.106Z,99.90
2018-04-20T19:03:02.744Z,99.90
2018-04-20T19:05:34.206Z,99.90
2018-04-20T19:08:05.078Z,99.90
2018-04-20T19:10:36.057Z,99.90
2018-04-20T19:13:06.868Z,99.90
2018-04-20T19:15:38.282Z,99.90
2018-04-20T19:18:09.917Z,99.90
2018-04-20T19:20:40.983Z,99.90
2018-04-20T19:23:12.625Z,99.90
2018-04-20T19:25:44.596Z,99.90
2018-04-20T19:28:16.234Z,99.90
2018-04-20T19:30:49.494Z,99.90
2018-04-20T19:33:20.374Z,99.90
2018-04-20T19:35:51.297Z,99.90
2018-04-20T19:38:22.958Z,99.90
2018-04-20T19:40:53.973Z,99.90
2018-04-20T19:43:24.829Z,99.90
2018-04-20T19:45:56.031Z,99.90
2018-04-20T19:48:26.866Z,99.90
2018-04-20T19:50:57.733Z,99.90
2018-04-20T19:53:28.870Z,99.90
2018-04-20T19:55:59.888Z,99.90
2018-04-20T19:58:30.729Z,99.90
2018-04-20T20:01:02.029Z,99.90
2018-04-20T20:03:32.934Z,99.90
2018-04-20T20:06:03.963Z,99.90
2018-04-20T20:08:35.129Z,99.90
2018-04-20T20:11:06.272Z,99.90
2018-04-20T20:13:37.857Z,99.90
2018-04-20T20:16:09.029Z,99.90
2018-04-20T20:18:39.895Z,99.90
2018-04-20T20:21:10.844Z,99.90
2018-04-20T20:23:41.681Z,99.90
2018-04-20T20:26:12.558Z,99.90
2018-04-20T20:28:43.770Z,99.90
2018-04-20T20:31:15.675Z,99.90
2018-04-20T20:33:46.559Z,99.90
2018-04-20T20:36:18.366Z,99.90
2018-04-20T20:38:49.215Z,99.90
2018-04-20T20:41:20.451Z,99.90
2018-04-20T20:43:51.329Z,99.90
2018-04-20T20:46:23.214Z,99.90
2018-04-20T20:48:55.120Z,99.90
2018-04-20T20:51:26.034Z,99.90
2018-04-20T20:53:56.971Z,99.90
2018-04-20T20:56:28.062Z,99.90
2018-04-20T20:58:58.952Z,99.90
2018-04-20T21:01:30.141Z,99.90
2018-04-20T21:04:01.013Z,99.90
2018-04-20T21:06:32.809Z,99.90
2018-04-20T21:09:04.182Z,99.90
2018-04-20T21:11:35.405Z,99.90
2018-04-20T21:14:06.321Z,99.90
2018-04-20T21:16:37.593Z,99.90
2018-04-20T21:19:08.448Z,99.90
2018-04-20T21:21:39.341Z,99.90
2018-04-20T21:24:10.569Z,99.90
2018-04-20T21:26:41.613Z,99.90
2018-04-20T21:29:12.463Z,99.90
2018-04-20T21:31:43.377Z,99.90
2018-04-20T21:34:14.638Z,99.90
2018-04-20T21:36:45.982Z,99.90
2018-04-20T21:39:16.819Z,99.90
2018-04-20T21:41:47.835Z,99.90
2018-04-20T21:44:19.443Z,99.90
2018-04-20T21:46:50.713Z,99.90
2018-04-20T21:49:21.584Z,99.90
2018-04-20T21:51:52.462Z,99.90
2018-04-20T21:54:23.329Z,99.90
2018-04-20T21:56:54.233Z,99.90
2018-04-20T21:59:25.170Z,99.90
2018-04-20T22:01:56.231Z,99.90
2018-04-20T22:04:27.094Z,99.90
2018-04-20T22:06:58.203Z,99.90
2018-04-20T22:09:29.461Z,99.90
2018-04-20T22:12:00.558Z,99.90
2018-04-20T22:15:12.257Z,99.90
